Weather observations for the past three days for
Andrews County Airport
Imperial (Metric)
Date Time (cdt) Wind (mph) Vis. (mi.) Weather Sky Cond. Temperature (ºF) Relative Humidity Wind Chill (°F) Heat Index (°F) Pressure Precipitation (in)
Air Dwpt 6 hour altimeter (in) sea level (mb) 1 hr 3 hr 6 hr
Max. Min.
03 09:55 S 12 10.00 Fair CLR 87.6 58.5 37% 87 30.02 0.0
03 09:35 S 13 G 16 10.00 Partly Cloudy SCT005 85.5 58.3 40% 85 30.02 0.0
03 09:15 S 12 10.00 Partly Cloudy SCT005 83.5 58.3 42% 83 30.03 0.0
03 08:55 S 13 10.00 Fair CLR 81.5 58.1 45% 82 30.02 0.0
03 08:35 S 9 10.00 Fair CLR 79.9 57.7 47% 80 30.02 0.0
03 08:15 S 7 10.00 Fair CLR 78.1 57.2 49% 79 30.02 0.0
03 07:55 S 6 10.00 Fair CLR 76.6 56.8 50% 78 30.02 0.0
03 07:35 S 7 10.00 Fair CLR 77 56.7 50% 79 30 0.0
03 07:15 S 7 10.00 Fair CLR 77.9 56.3 47% 79 30 0.0
03 06:55 S 8 10.00 Fair CLR 78.1 56.3 82.8 78.1 47% 79 30 0.0
03 06:35 SW 8 10.00 Fair CLR 78.8 56.3 46% 80 30 0.0
03 06:15 SW 8 10.00 Fair CLR 78.8 56.3 46% 80 30 0.0
03 05:55 SW 8 10.00 Fair CLR 79.2 55.8 45% 80 30 0.0
03 05:35 SW 9 10.00 Fair CLR 79.9 55.8 44% 80 30 0.0
03 05:15 SW 9 10.00 Fair CLR 80.2 55.4 43% 80 30 0.0
03 04:55 SW 10 10.00 Fair CLR 80.6 55 41% 80 30 0.0
03 04:35 S 10 10.00 Fair CLR 81 54.7 40% 81 30 0.0
03 04:15 SW 9 10.00 Fair CLR 81.1 54.5 40% 81 30 0.0
03 03:55 SW 9 10.00 Fair CLR 80.8 54 40% 80 30 0.0
03 03:35 S 8 10.00 Fair CLR 81.3 54 39% 81 30.01 0.0
03 03:15 S 10 10.00 Fair CLR 81 53.6 39% 81 30 0.0
03 02:55 S 8 10.00 Fair CLR 80.6 53.4 39% 80 30.01 0.0
03 02:35 S 7 10.00 Fair CLR 81 53.6 39% 81 30.01 0.0
03 02:15 S 8 10.00 Fair CLR 82.4 53.6 37% 81 30.01 0.0
03 01:55 S 9 10.00 Fair CLR 82.6 53.6 37% 82 30.01 0.0
03 01:35 S 8 10.00 Fair CLR 82.4 53.6 37% 81 30.01 0.0
03 01:15 S 8 10.00 Fair CLR 82.4 53.4 37% 81 30.01 0.0
03 00:55 S 7 10.00 Fair CLR 82 52.5 96.4 81.5 36% 81 30.01 0.0
03 00:35 S 7 10.00 Fair CLR 81.7 52 36% 81 30.01 0.0
03 00:15 S 7 10.00 Fair CLR 81.9 51.4 35% 81 30.01 0.0
02 23:55 S 7 10.00 Partly Cloudy SCT110 82.4 50.9 34% 81 30.01 0.0
02 23:35 S 6 10.00 Mostly Cloudy SCT005 BKN110 83.8 50.4 31% 82 30.01 0.0
02 23:15 SE 7 10.00 Mostly Cloudy SCT005 BKN110 85.1 50.2 30% 83 30.01 0.0
02 22:55 SE 7 10.00 Mostly Cloudy BKN110 85.3 50 30% 83 30.01 0.0
02 22:35 SE 7 10.00 Mostly Cloudy BKN100 85.1 49.8 30% 83 30.01 0.0
02 22:15 SE 7 10.00 Partly Cloudy SCT003 SCT110 85.3 49.6 29% 83 30.01 0.0
02 21:55 SE 7 10.00 Mostly Cloudy BKN003 BKN110 86.2 49.6 28% 84 30 0.0
02 21:35 SE 6 10.00 Overcast OVC003 87.3 49.6 27% 85 29.99 0.0
02 21:15 SE 7 10.00 Overcast OVC003 87.4 49.6 27% 85 29.98 0.0
02 20:55 SE 6 10.00 Overcast OVC003 88.5 50 27% 86 29.98 0.0
02 20:35 SE 7 10.00 Overcast OVC003 89.8 50 26% 87 29.98 0.0
02 20:15 SE 7 10.00 Overcast OVC003 91 50 25% 88 29.97 0.0
02 19:55 SE 8 10.00 Overcast OVC005 92.7 50 23% 90 29.96 0.0
02 19:35 SE 8 10.00 Overcast OVC005 94.1 50.4 23% 91 29.97 0.0
02 19:15 SE 9 10.00 Mostly Cloudy BKN005 BKN110 95 50.5 22% 92 29.97 0.0
02 18:55 SE 10 10.00 Partly Cloudy SCT005 96.4 51.1 99.5 95 22% 94 29.96 0.0
02 18:35 SE 8 10.00 Fair CLR 96.4 51.3 22% 94 29.97 0.0
02 18:15 S 6 10.00 Partly Cloudy SCT100 97.3 51.4 21% 95 29.96 0.0
02 17:55 S 9 10.00 Fair CLR 98.4 51.4 20% 96 29.97 0.0
02 17:35 S 7 G 16 10.00 Fair CLR 98.4 51.6 21% 96 29.97 0.0
02 17:15 S 7 G 16 10.00 Fair CLR 98.8 51.8 21% 96 29.98 0.0
02 16:55 Calm 10.00 Fair CLR 97.9 52.2 21% 95 29.98 0.0
02 16:35 SW 3 10.00 Fair CLR 97.2 52.5 22% 95 29.98 0.0
02 16:15 SE 6 G 16 10.00 Partly Cloudy SCT110 99 52.7 21% 97 29.99 0.0
02 15:55 W 5 10.00 Partly Cloudy SCT095 98.4 53.2 22% 96 30 0.0
02 15:35 SW 5 10.00 Fair CLR 98.4 53.6 22% 96 30.01 0.0
02 15:15 SE 6 10.00 Fair CLR 98.2 53.4 22% 96 30.02 0.0
02 14:55 S 6 10.00 Fair CLR 98.1 53.6 22% 96 30.03 0.0
02 14:35 SW 6 10.00 Fair CLR 97.2 53.4 23% 95 30.04 0.0
02 14:15 SW 6 10.00 Partly Cloudy SCT090 96.4 54 24% 94 30.04 0.0
02 13:55 S 9 10.00 Partly Cloudy SCT090 95.2 54.3 25% 93 30.06 0.0
02 13:35 SW 9 10.00 Partly Cloudy SCT090 95.7 54.1 25% 94 30.07 0.0
02 13:15 SE 6 10.00 Fair CLR 95.2 54.3 25% 93 30.07 0.0
02 12:55 S 10 10.00 Partly Cloudy SCT110 96.1 54.7 96.3 71.8 25% 94 30.09 0.0
02 12:35 S 13 G 17 10.00 Fair CLR 94.6 55.6 27% 93 30.09 0.0
02 12:15 SW 9 G 16 10.00 Partly Cloudy SCT008 93.9 56.1 28% 92 30.1 0.0
02 11:55 S 10 10.00 Fair CLR 92.3 57 31% 91 30.1 0.0
02 11:35 S 9 G 17 10.00 Fair CLR 91.8 57.2 31% 90 30.11 0.0
02 11:15 S 13 G 20 10.00 Fair CLR 91 57.2 32% 90 30.1 0.0
02 10:55 S 13 G 16 10.00 Fair CLR 89.1 57.2 34% 88 30.11 0.0
02 10:35 S 13 10.00 Fair CLR 88 57.2 35% 87 30.1 0.0
02 10:15 S 14 10.00 Partly Cloudy SCT009 86.4 57.2 37% 85 30.1 0.0
02 09:55 S 15 10.00 Partly Cloudy SCT010 84.7 57 39% 84 30.1 0.0
02 09:35 S 17 G 22 10.00 Fair CLR 83.5 57.2 41% 83 30.1 0.0
02 09:15 S 10 10.00 Fair CLR 81.1 57.2 44% 81 30.1 0.0
02 08:55 S 8 10.00 Fair CLR 79.9 57.2 46% 80 30.1 0.0
02 08:35 S 8 10.00 Fair CLR 77.5 57.2 50% 79 30.1 0.0
02 08:15 S 6 10.00 Fair CLR 75.4 57.2 53% 78 30.09 0.0
02 07:55 S 5 10.00 Fair CLR 72.9 56.7 57% 30.08 0.0
02 07:35 S 6 10.00 Fair CLR 72 56.7 59% 30.08 0.0
02 07:15 S 6 10.00 Fair CLR 72.1 56.8 59% 30.08 0.0
02 06:55 S 5 10.00 Fair CLR 72.3 57 81.5 72.3 59% 30.08 0.0
02 06:35 S 5 10.00 Fair CLR 72.7 57.2 58% 30.07 0.0
02 06:15 S 6 10.00 Fair CLR 74.3 57.2 55% 30.08 0.0
02 05:55 S 6 10.00 Fair CLR 74.5 57.2 55% 30.08 0.0
02 05:35 S 6 10.00 Fair CLR 75.2 57.2 54% 78 30.07 0.0
02 05:15 S 3 10.00 Fair CLR 75 56.8 53% 78 30.08 0.0
02 04:55 S 6 10.00 Fair CLR 76.8 56.5 50% 78 30.08 0.0
02 04:35 SW 6 10.00 Fair CLR 77.4 56.5 49% 79 30.08 0.0
02 04:15 S 3 10.00 Fair CLR 75.6 55.6 50% 78 30.08 0.0
02 03:55 S 5 10.00 Fair CLR 75.6 54.9 49% 78 30.08 0.0
02 03:35 S 5 10.00 Fair CLR 76.1 54 46% 78 30.08 0.0
02 03:15 S 3 10.00 Fair CLR 75.7 52.7 45% 78 30.08 0.0
02 02:55 S 3 10.00 Fair CLR 75.9 52.9 45% 78 30.08 0.0
02 02:35 S 3 10.00 Fair CLR 76.5 52.9 44% 78 30.08 0.0
02 02:15 S 5 10.00 Fair CLR 76.6 52.9 44% 78 30.08 0.0
02 01:55 S 5 10.00 Fair CLR 77.4 52.9 43% 79 30.08 0.0
02 01:35 SE 3 10.00 Fair CLR 79 53.1 41% 79 30.08 0.0
02 01:15 S 5 10.00 Mostly Cloudy BKN095 80.2 52.9 39% 80 30.08 0.0
02 00:55 S 6 10.00 Partly Cloudy SCT095 81.5 53.1 92.5 79.7 37% 81 30.08 0.0
02 00:35 SE 7 10.00 Fair CLR 80.6 52.9 38% 80 30.07 0.0
02 00:15 SE 6 10.00 Fair CLR 79.9 52.9 39% 80 30.06 0.0
01 23:55 SE 6 10.00 Partly Cloudy SCT100 82.2 52.9 36% 81 30.07 0.0
01 23:35 SE 9 10.00 Partly Cloudy SCT110 83.8 52.9 34% 82 30.07 0.0
01 23:15 SE 7 10.00 Mostly Cloudy BKN110 84.2 53.2 35% 83 30.07 0.0
01 22:55 SE 5 10.00 Mostly Cloudy BKN100 84.4 53.1 34% 83 30.07 0.0
01 22:35 SE 7 10.00 Partly Cloudy SCT100 84.7 53.1 34% 83 30.06 0.0
01 22:15 SE 8 10.00 Partly Cloudy SCT100 85.6 53.1 33% 84 30.06 0.0
01 21:55 SE 7 10.00 Fair CLR 86.2 53.2 32% 84 30.04 0.0
01 21:35 SE 9 10.00 Partly Cloudy SCT110 86.9 53.4 32% 85 30.03 0.0
01 21:15 SE 9 10.00 Partly Cloudy SCT100 88 53.2 31% 86 30.02 0.0
01 20:55 SE 8 10.00 Partly Cloudy SCT004 88.7 53.1 30% 86 30.02 0.0
01 20:35 SE 10 10.00 Partly Cloudy SCT004 SCT100 89.6 53.1 29% 87 30.01 0.0
01 20:15 SE 9 10.00 Mostly Cloudy SCT004 BKN100 90.7 53.1 28% 88 30.01 0.0
01 19:55 SE 10 7.00 Overcast SCT004 OVC100 91.8 52.9 27% 89 30 0.0
01 19:35 SE 12 10.00 Mostly Cloudy BKN100 92.3 53.1 26% 90 30 0.0
01 19:15 SE 12 10.00 Mostly Cloudy BKN110 92.3 53.2 27% 90 30 0.0
01 18:55 SE 9 10.00 Partly Cloudy SCT110 92.3 53.6 97 92.1 27% 90 29.99 0.0
01 18:35 SE 7 10.00 Fair CLR 93.2 53.4 26% 91 29.99 0.0
01 18:15 S 8 G 17 10.00 Partly Cloudy SCT095 SCT120 94.1 53.8 26% 92 29.99 0.0
01 17:55 SE 12 10.00 Mostly Cloudy BKN095 BKN120 95.5 54.1 25% 93 29.99 0.0
01 17:35 SE 6 G 9 10.00 Partly Cloudy SCT095 96.6 54.1 24% 94 29.99 0.0
01 17:15 SE 14 G 17 10.00 Fair CLR 96.4 54.1 24% 94 29.99 0.0
01 16:55 S 10 G 18 10.00 Fair CLR 94.5 54.5 26% 92 30 0.0
01 16:35 SE 8 G 17 10.00 Fair CLR 96.1 54.7 25% 94 30.01 0.0
01 16:15 SE 14 G 20 10.00 Fair CLR 96.6 54.7 24% 95 30.02 0.0
01 15:55 SE 12 G 20 10.00 Partly Cloudy SCT085 SCT120 94.8 55.8 27% 93 30.03 0.0
01 15:35 S 9 G 20 10.00 Fair CLR 93.2 54 27% 91 30.04 0.0
01 15:15 SE 9 G 18 10.00 Partly Cloudy SCT095 94.6 54.5 26% 93 30.04 0.0
01 14:55 SE 8 10.00 Mostly Cloudy BKN085 94.5 54.7 26% 92 30.06 0.0
01 14:35 S 9 10.00 Partly Cloudy SCT100 95.9 54.7 25% 94 30.06 0.0
01 14:15 SE 6 10.00 Fair CLR 93.7 54.5 27% 92 30.07 0.0
01 13:55 S 10 G 20 10.00 Partly Cloudy SCT080 SCT095 94.3 55.2 27% 92 30.07 0.0
01 13:35 SE 15 G 18 10.00 Partly Cloudy SCT065 SCT080 93.4 56.7 29% 92 30.08 0.0
01 13:15 SE 13 G 17 10.00 Partly Cloudy SCT065 93 58.1 31% 92 30.08 0.0
01 12:55 S 10 G 17 10.00 Partly Cloudy SCT065 92.1 58.8 92.3 72.1 33% 91 30.09 0.0
01 12:35 SE 13 G 18 10.00 Fair CLR 91.6 59 34% 91 30.1 0.0
01 12:15 S 9 G 17 10.00 Fair CLR 90.3 59.2 35% 90 30.1 0.0
01 11:55 S 14 G 18 10.00 Fair CLR 89.4 60.3 38% 89 30.1 0.0
01 11:35 S 10 G 18 10.00 Fair CLR 88.2 60.3 39% 88 30.1 0.0
01 11:15 S 12 10.00 Fair CLR 87.6 61.7 42% 88 30.1 0.0
01 10:55 S 10 G 20 10.00 Partly Cloudy SCT100 86 61.9 44% 86 30.11 0.0
01 10:35 S 13 10.00 Partly Cloudy SCT100 84.6 62.1 47% 85 30.1 0.0
01 10:15 S 14 G 17 10.00 Fair CLR 83.7 62.2 49% 84 30.1 0.0
01 09:55 S 14 10.00 Fair CLR 81.7 62.1 51% 83 30.1 0.0
01 09:35 S 15 10.00 Fair CLR 80.2 62.2 54% 81 30.11 0.0
01 09:15 S 12 10.00 Partly Cloudy SCT100 79 62.6 57% 80 30.11 0.0
01 08:55 S 12 10.00 Fair CLR 77.4 61.7 59% 79 30.11 0.0
01 08:35 S 10 10.00 Fair CLR 75.9 61 60% 78 30.11 0.0
01 08:15 S 7 10.00 Fair CLR 74.1 60.4 62% 30.11 0.0
01 07:55 SE 7 10.00 Fair CLR 72.7 59.9 64% 30.1 0.0
01 07:35 SE 6 10.00 Fair CLR 72.5 59.2 63% 30.1 0.0
01 07:15 SE 6 10.00 Fair CLR 73 59 62% 30.09 0.0
01 06:55 SE 6 10.00 Fair CLR 73.8 59 79.9 72.7 60% 30.09 0.0
01 06:35 S 7 10.00 Fair CLR 74.3 59 59% 30.09 0.0
01 06:15 SE 7 10.00 Fair CLR 74.5 59 59% 30.09 0.0
01 05:55 S 7 10.00 Fair CLR 74.3 59 59% 30.09 0.0
01 05:35 S 6 10.00 Fair CLR 73.8 59 60% 30.09 0.0
01 05:15 S 7 10.00 Fair CLR 73.8 58.5 59% 30.09 0.0
01 04:55 S 7 10.00 Fair CLR 74.7 58.5 57% 30.08 0.0
01 04:35 S 7 10.00 Fair CLR 73.8 57.4 57% 30.09 0.0
01 04:15 S 5 10.00 Fair CLR 72.9 56.3 56% 30.08 0.0
01 03:55 S 3 10.00 Fair CLR 73 55.8 55% 30.08 0.0
01 03:35 S 5 10.00 Fair CLR 73.8 55.6 53% 30.08 0.0
01 03:15 S 5 10.00 Fair CLR 73.8 55.4 53% 30.08 0.0
01 02:55 S 5 10.00 Fair CLR 75 55.6 51% 78 30.07 0.0
01 02:35 S 6 10.00 Fair CLR 76.1 55.6 49% 78 30.07 0.0
01 02:15 S 5 10.00 Fair CLR 76.1 55.6 49% 78 30.07 0.0
01 01:55 S 3 10.00 Fair CLR 76.5 55.6 49% 78 30.07 0.0
01 01:35 S 6 10.00 Fair CLR 77.7 55.4 46% 79 30.07 0.0
01 01:15 S 7 10.00 Fair CLR 78.4 55.4 45% 79 30.07 0.0
01 00:55 S 6 10.00 Fair CLR 80.1 55.4 93.2 79.2 43% 80 30.07 0.0
01 00:35 S 6 10.00 Fair CLR 79.3 55.4 44% 80 30.07 0.0
01 00:15 S 5 10.00 Fair CLR 79.7 55 43% 80 30.06 0.0
31 23:55 S 7 10.00 Fair CLR 80.8 54.7 41% 81 30.05 0.0
31 23:35 S 7 10.00 Fair CLR 81.5 53.8 38% 81 30.05 0.0
31 23:15 S 7 10.00 Fair CLR 81.5 52.9 37% 81 30.06 0.0
31 22:55 SE 7 10.00 Fair CLR 82.4 52.7 36% 81 30.06 0.0
31 22:35 SE 6 10.00 Fair CLR 82.4 52.7 36% 81 30.06 0.0
31 22:15 SE 6 10.00 Fair CLR 83.3 53.1 35% 82 30.04 0.0
31 21:55 SE 6 10.00 Fair CLR 84.4 53.4 35% 83 30.03 0.0
31 21:35 SE 7 10.00 Fair CLR 85.6 53.8 34% 84 30.02 0.0
31 21:15 SE 8 10.00 Fair CLR 86.7 53.8 32% 85 29.99 0.0
31 20:55 SE 12 G 16 10.00 Fair CLR 87.4 54 32% 85 29.99 0.0
31 20:35 SE 10 10.00 Fair CLR 88.2 54.1 31% 86 29.98 0.0
31 20:15 SE 13 G 20 10.00 Fair CLR 89.4 53.8 30% 87 29.98 0.0
31 19:55 SE 14 G 21 10.00 Fair CLR 90.5 54.5 29% 88 29.98 0.0
31 19:35 SE 16 G 22 10.00 Fair CLR 91.6 54.7 29% 89 29.98 0.0
31 19:15 SE 18 G 24 10.00 Fair CLR 92.8 55 28% 91 29.97 0.0
31 18:35 SE 14 G 21 10.00 Fair CLR 94.3 54.9 26% 92 29.97 0.0
31 18:15 SE 13 G 23 10.00 Fair CLR 95 55 26% 93 29.98 0.0
31 17:55 SE 9 G 21 10.00 Partly Cloudy SCT090 94.8 54.5 26% 93 29.98 0.0
31 17:35 S 8 G 14 10.00 Partly Cloudy SCT090 94.1 56.1 28% 92 29.98 0.0
31 17:15 SE 16 G 20 10.00 Partly Cloudy SCT085 95.5 54.9 25% 94 29.99 0.0
31 16:55 SE 7 G 18 10.00 Partly Cloudy SCT085 95.4 55 26% 93 30 0.0
31 16:35 SE 12 G 18 10.00 Fair CLR 93.4 54.7 27% 91 30.01 0.0
31 16:15 S 8 G 20 10.00 Fair CLR 95.2 55.6 26% 93 30.02 0.0
31 15:55 SE 8 G 12 10.00 Partly Cloudy SCT085 95.5 55.8 26% 94 30.02 0.0
31 15:35 S 10 10.00 Partly Cloudy SCT075 95.2 55.9 27% 94 30.03 0.0
31 15:15 S 6 10.00 Partly Cloudy SCT075 94.6 56.3 28% 93 30.04 0.0
31 14:55 S 5 10.00 Partly Cloudy SCT075 94.8 57.4 29% 94 30.05 0.0
31 14:35 SE 6 10.00 Partly Cloudy SCT070 94.3 57.4 29% 93 30.05 0.0
31 14:15 SE 10 G 17 10.00 Mostly Cloudy BKN070 94.3 58.3 30% 93 30.06 0.0
31 13:55 Calm 10.00 Mostly Cloudy BKN060 BKN080 92.7 58.6 32% 92 30.07 0.0
31 13:35 SE 8 G 18 10.00 Partly Cloudy SCT060 93.2 60.1 33% 93 30.07 0.0
31 13:15 S 8 10.00 Mostly Cloudy SCT060 BKN070 91 60.1 35% 91 30.07 0.0
31 12:55 S 6 G 10 10.00 Mostly Cloudy BKN060 90.9 61.3 90.9 72.3 37% 91 30.08 0.0
31 12:35 SE 7 G 18 10.00 Partly Cloudy SCT048 89.6 61.7 39% 90 30.09 0.0
31 12:15 S 5 10.00 Partly Cloudy SCT048 88.7 63 42% 90 30.1 0.0
31 11:55 S 12 G 17 10.00 Fair CLR 87.4 63.9 45% 89 30.1 0.0
31 11:35 S 12 G 16 10.00 Fair CLR 86.4 64 47% 88 30.1 0.0
31 11:15 S 9 G 16 10.00 Fair CLR 86 64.4 49% 87 30.1 0.0
31 10:55 S 10 10.00 Fair CLR 84.2 64.4 51% 86 30.1 0.0
31 10:35 S 13 G 18 10.00 Fair CLR 83.3 64.6 53% 85 30.1 0.0
31 10:15 S 12 10.00 Fair CLR 82 64.6 56% 84 30.09 0.0
Date Time (cdt) Wind (mph) Vis. (mi.) Weather Sky Cond. Air Dwpt Max. Min. Relative Humidity Wind Chill (°F) Heat Index (°F) altimeter (in) sea level (mb) 1 hr 3 hr 6 hr
6 hour
Temperature (ºF) Pressure Precipitation (in)